Altamahaw, North Carolina
Current Conditions -  °F | °C
As of 3:54 AM on Monday 24 Nov 2014 (Local Time) from KBUY Reporting Station
Clear Clear  
Wind Chill: 17°   Ceiling: Unl
Heat Index: 17°   Visibility: 10mi
Dew Point: 13°   Wind: 8mph
Humidity: 80%   Direction: 200°SSW
Pressure: 29.75"   Gusts: NA
Location:  36.18°N, 79.51°W
Report Text: KBUY 240854Z AUTO 20007KT 10SM CLR 17/13 A2975 RMK AO2 SLP071 T01670133 51015
Loading
Personal Weather Stations






























Interactive Weather Map New forecast layout! Learn more

10-Day Weather Forecast

Advertisements
Track Severe Weather on mobile